sensor_id;sensor_type;location;lat;lon;timestamp;temperature;humidity
3842;DHT22;1936;47.074;15.336;2022-11-20T00:01:10;1.30;99.90
3842;DHT22;1936;47.074;15.336;2022-11-20T00:03:14;1.30;99.90
3842;DHT22;1936;47.074;15.336;2022-11-20T00:05:17;1.30;99.90
3842;DHT22;1936;47.074;15.336;2022-11-20T00:07:21;1.30;99.90
3842;DHT22;1936;47.074;15.336;2022-11-20T00:09:24;1.30;99.90
3842;DHT22;1936;47.074;15.336;2022-11-20T00:11:30;1.30;99.90
3842;DHT22;1936;47.074;15.336;2022-11-20T00:13:34;1.30;99.90
3842;DHT22;1936;47.074;15.336;2022-11-20T00:15:37;1.30;99.90
3842;DHT22;1936;47.074;15.336;2022-11-20T00:17:40;1.30;99.90
3842;DHT22;1936;47.074;15.336;2022-11-20T00:19:44;1.30;99.90
3842;DHT22;1936;47.074;15.336;2022-11-20T00:21:47;1.30;99.90
3842;DHT22;1936;47.074;15.336;2022-11-20T00:23:54;1.30;99.90
3842;DHT22;1936;47.074;15.336;2022-11-20T00:26:01;1.30;99.90
3842;DHT22;1936;47.074;15.336;2022-11-20T00:28:06;1.30;99.90
3842;DHT22;1936;47.074;15.336;2022-11-20T00:30:10;1.30;99.90
3842;DHT22;1936;47.074;15.336;2022-11-20T00:32:16;1.40;99.90
3842;DHT22;1936;47.074;15.336;2022-11-20T00:34:19;1.30;99.90
3842;DHT22;1936;47.074;15.336;2022-11-20T00:36:24;1.40;99.90
3842;DHT22;1936;47.074;15.336;2022-11-20T00:38:27;1.40;99.90
3842;DHT22;1936;47.074;15.336;2022-11-20T00:40:31;1.40;99.90
3842;DHT22;1936;47.074;15.336;2022-11-20T00:42:34;1.40;99.90
3842;DHT22;1936;47.074;15.336;2022-11-20T00:44:39;1.40;99.90
3842;DHT22;1936;47.074;15.336;2022-11-20T00:46:42;1.40;99.90
3842;DHT22;1936;47.074;15.336;2022-11-20T00:48:46;1.40;99.90
3842;DHT22;1936;47.074;15.336;2022-11-20T00:50:49;1.40;99.90
3842;DHT22;1936;47.074;15.336;2022-11-20T00:52:52;1.40;99.90
3842;DHT22;1936;47.074;15.336;2022-11-20T00:54:56;1.40;99.90
3842;DHT22;1936;47.074;15.336;2022-11-20T00:56:59;1.40;99.90
3842;DHT22;1936;47.074;15.336;2022-11-20T00:59:02;1.40;99.90
3842;DHT22;1936;47.074;15.336;2022-11-20T01:01:10;1.40;99.90
3842;DHT22;1936;47.074;15.336;2022-11-20T01:03:14;1.40;99.90
3842;DHT22;1936;47.074;15.336;2022-11-20T01:05:17;1.40;99.90
3842;DHT22;1936;47.074;15.336;2022-11-20T01:07:20;1.40;99.90
3842;DHT22;1936;47.074;15.336;2022-11-20T01:09:24;1.40;99.90
3842;DHT22;1936;47.074;15.336;2022-11-20T01:11:29;1.40;99.90
3842;DHT22;1936;47.074;15.336;2022-11-20T01:13:32;1.30;99.90
3842;DHT22;1936;47.074;15.336;2022-11-20T01:15:41;1.40;99.90
3842;DHT22;1936;47.074;15.336;2022-11-20T01:17:46;1.40;99.90
3842;DHT22;1936;47.074;15.336;2022-11-20T01:19:49;1.30;99.90
3842;DHT22;1936;47.074;15.336;2022-11-20T01:21:54;1.30;99.90
3842;DHT22;1936;47.074;15.336;2022-11-20T01:23:57;1.30;99.90
3842;DHT22;1936;47.074;15.336;2022-11-20T01:26:02;1.30;99.90
3842;DHT22;1936;47.074;15.336;2022-11-20T01:28:05;1.30;99.90
3842;DHT22;1936;47.074;15.336;2022-11-20T01:30:10;1.30;99.90
3842;DHT22;1936;47.074;15.336;2022-11-20T01:32:13;1.30;99.90
3842;DHT22;1936;47.074;15.336;2022-11-20T01:34:19;1.30;99.90
3842;DHT22;1936;47.074;15.336;2022-11-20T01:36:25;1.40;99.90
3842;DHT22;1936;47.074;15.336;2022-11-20T01:38:28;1.30;99.90
3842;DHT22;1936;47.074;15.336;2022-11-20T01:40:35;1.30;99.90
3842;DHT22;1936;47.074;15.336;2022-11-20T01:42:46;1.30;99.90
3842;DHT22;1936;47.074;15.336;2022-11-20T01:47:45;1.40;99.90
3842;DHT22;1936;47.074;15.336;2022-11-20T01:49:56;1.30;99.90
3842;DHT22;1936;47.074;15.336;2022-11-20T01:52:04;1.30;99.90
3842;DHT22;1936;47.074;15.336;2022-11-20T01:54:10;1.40;99.90
3842;DHT22;1936;47.074;15.336;2022-11-20T01:56:15;1.40;99.90
3842;DHT22;1936;47.074;15.336;2022-11-20T01:58:21;1.40;99.90
3842;DHT22;1936;47.074;15.336;2022-11-20T02:00:25;1.40;99.90
3842;DHT22;1936;47.074;15.336;2022-11-20T02:02:29;1.40;99.90
3842;DHT22;1936;47.074;15.336;2022-11-20T02:04:32;1.40;99.90
3842;DHT22;1936;47.074;15.336;2022-11-20T02:06:40;1.30;99.90
3842;DHT22;1936;47.074;15.336;2022-11-20T02:08:45;1.30;99.90
3842;DHT22;1936;47.074;15.336;2022-11-20T02:10:48;1.30;99.90
3842;DHT22;1936;47.074;15.336;2022-11-20T02:12:52;1.30;99.90
3842;DHT22;1936;47.074;15.336;2022-11-20T02:15:13;1.30;99.90
3842;DHT22;1936;47.074;15.336;2022-11-20T02:17:16;1.30;99.90
3842;DHT22;1936;47.074;15.336;2022-11-20T02:19:24;1.30;99.90
3842;DHT22;1936;47.074;15.336;2022-11-20T02:21:34;1.40;99.90
3842;DHT22;1936;47.074;15.336;2022-11-20T02:23:55;1.40;99.90
3842;DHT22;1936;47.074;15.336;2022-11-20T02:26:02;1.40;99.90
3842;DHT22;1936;47.074;15.336;2022-11-20T02:28:06;1.40;99.90
3842;DHT22;1936;47.074;15.336;2022-11-20T02:30:11;1.40;99.90
3842;DHT22;1936;47.074;15.336;2022-11-20T02:32:18;1.40;99.90
3842;DHT22;1936;47.074;15.336;2022-11-20T02:34:25;1.40;99.90
3842;DHT22;1936;47.074;15.336;2022-11-20T02:36:31;1.40;99.90
3842;DHT22;1936;47.074;15.336;2022-11-20T02:38:35;1.40;99.90
3842;DHT22;1936;47.074;15.336;2022-11-20T02:40:40;1.40;99.90
3842;DHT22;1936;47.074;15.336;2022-11-20T02:42:44;1.30;99.90
3842;DHT22;1936;47.074;15.336;2022-11-20T02:44:47;1.40;99.90
3842;DHT22;1936;47.074;15.336;2022-11-20T02:46:50;1.40;99.90
3842;DHT22;1936;47.074;15.336;2022-11-20T02:48:54;1.40;99.90
3842;DHT22;1936;47.074;15.336;2022-11-20T02:50:57;1.40;99.90
3842;DHT22;1936;47.074;15.336;2022-11-20T02:53:00;1.40;99.90
3842;DHT22;1936;47.074;15.336;2022-11-20T02:55:04;1.40;99.90
3842;DHT22;1936;47.074;15.336;2022-11-20T02:57:09;1.40;99.90
3842;DHT22;1936;47.074;15.336;2022-11-20T02:59:15;1.40;99.90
3842;DHT22;1936;47.074;15.336;2022-11-20T03:01:19;1.30;99.90
3842;DHT22;1936;47.074;15.336;2022-11-20T03:03:22;1.30;99.90
3842;DHT22;1936;47.074;15.336;2022-11-20T03:05:26;1.30;99.90
3842;DHT22;1936;47.074;15.336;2022-11-20T03:07:29;1.30;99.90
3842;DHT22;1936;47.074;15.336;2022-11-20T03:09:32;1.30;99.90
3842;DHT22;1936;47.074;15.336;2022-11-20T03:11:35;1.30;99.90
3842;DHT22;1936;47.074;15.336;2022-11-20T03:13:40;1.30;99.90
3842;DHT22;1936;47.074;15.336;2022-11-20T03:15:43;1.30;99.90
3842;DHT22;1936;47.074;15.336;2022-11-20T03:17:47;1.30;99.90
3842;DHT22;1936;47.074;15.336;2022-11-20T03:19:50;1.30;99.90
3842;DHT22;1936;47.074;15.336;2022-11-20T03:21:53;1.30;99.90
3842;DHT22;1936;47.074;15.336;2022-11-20T03:23:57;1.30;99.90
3842;DHT22;1936;47.074;15.336;2022-11-20T03:26:11;1.30;99.90
3842;DHT22;1936;47.074;15.336;2022-11-20T03:28:15;1.30;99.90
3842;DHT22;1936;47.074;15.336;2022-11-20T03:30:20;1.30;99.90
3842;DHT22;1936;47.074;15.336;2022-11-20T03:32:30;1.30;99.90
3842;DHT22;1936;47.074;15.336;2022-11-20T03:34:33;1.30;99.90
3842;DHT22;1936;47.074;15.336;2022-11-20T03:36:38;1.30;99.90
3842;DHT22;1936;47.074;15.336;2022-11-20T03:38:42;1.30;99.90
3842;DHT22;1936;47.074;15.336;2022-11-20T03:40:45;1.40;99.90
3842;DHT22;1936;47.074;15.336;2022-11-20T03:42:48;1.40;99.90
3842;DHT22;1936;47.074;15.336;2022-11-20T03:44:51;1.40;99.90
3842;DHT22;1936;47.074;15.336;2022-11-20T03:46:56;1.30;99.90
3842;DHT22;1936;47.074;15.336;2022-11-20T03:49:00;1.30;99.90
3842;DHT22;1936;47.074;15.336;2022-11-20T03:51:08;1.40;99.90
3842;DHT22;1936;47.074;15.336;2022-11-20T03:53:11;1.30;99.90
3842;DHT22;1936;47.074;15.336;2022-11-20T03:55:14;1.30;99.90
3842;DHT22;1936;47.074;15.336;2022-11-20T03:57:18;1.30;99.90
3842;DHT22;1936;47.074;15.336;2022-11-20T03:59:21;1.30;99.90
3842;DHT22;1936;47.074;15.336;2022-11-20T04:01:27;1.30;99.90
3842;DHT22;1936;47.074;15.336;2022-11-20T04:03:33;1.30;99.90
3842;DHT22;1936;47.074;15.336;2022-11-20T04:05:36;1.30;99.90
3842;DHT22;1936;47.074;15.336;2022-11-20T04:07:39;1.20;99.90
3842;DHT22;1936;47.074;15.336;2022-11-20T04:09:43;1.20;99.90
3842;DHT22;1936;47.074;15.336;2022-11-20T04:11:46;1.20;99.90
3842;DHT22;1936;47.074;15.336;2022-11-20T04:13:51;1.20;99.90
3842;DHT22;1936;47.074;15.336;2022-11-20T04:15:57;1.20;99.90
3842;DHT22;1936;47.074;15.336;2022-11-20T04:18:00;1.20;99.90
3842;DHT22;1936;47.074;15.336;2022-11-20T04:20:06;1.30;99.90
3842;DHT22;1936;47.074;15.336;2022-11-20T04:22:10;1.30;99.90
3842;DHT22;1936;47.074;15.336;2022-11-20T04:24:14;1.30;99.90
3842;DHT22;1936;47.074;15.336;2022-11-20T04:26:17;1.30;99.90
3842;DHT22;1936;47.074;15.336;2022-11-20T04:28:20;1.20;99.90
3842;DHT22;1936;47.074;15.336;2022-11-20T04:30:24;1.20;99.90
3842;DHT22;1936;47.074;15.336;2022-11-20T04:32:27;1.30;99.90
3842;DHT22;1936;47.074;15.336;2022-11-20T04:34:31;1.20;99.90
3842;DHT22;1936;47.074;15.336;2022-11-20T04:36:35;1.20;99.90
3842;DHT22;1936;47.074;15.336;2022-11-20T04:38:39;1.20;99.90
3842;DHT22;1936;47.074;15.336;2022-11-20T04:40:42;1.20;99.90
3842;DHT22;1936;47.074;15.336;2022-11-20T04:42:46;1.20;99.90
3842;DHT22;1936;47.074;15.336;2022-11-20T04:44:49;1.20;99.90
3842;DHT22;1936;47.074;15.336;2022-11-20T04:46:53;1.20;99.90
3842;DHT22;1936;47.074;15.336;2022-11-20T04:48:56;1.20;99.90
3842;DHT22;1936;47.074;15.336;2022-11-20T04:51:03;1.20;99.90
3842;DHT22;1936;47.074;15.336;2022-11-20T04:53:08;1.20;99.90
3842;DHT22;1936;47.074;15.336;2022-11-20T04:55:12;1.10;99.90
3842;DHT22;1936;47.074;15.336;2022-11-20T04:57:15;1.20;99.90
3842;DHT22;1936;47.074;15.336;2022-11-20T04:59:19;1.20;99.90
3842;DHT22;1936;47.074;15.336;2022-11-20T05:01:23;1.20;99.90
3842;DHT22;1936;47.074;15.336;2022-11-20T05:03:27;1.20;99.90
3842;DHT22;1936;47.074;15.336;2022-11-20T05:05:31;1.20;99.90
3842;DHT22;1936;47.074;15.336;2022-11-20T05:07:34;1.10;99.90
3842;DHT22;1936;47.074;15.336;2022-11-20T05:09:39;1.10;99.90
3842;DHT22;1936;47.074;15.336;2022-11-20T05:11:42;1.10;99.90
3842;DHT22;1936;47.074;15.336;2022-11-20T05:13:51;1.10;99.90
3842;DHT22;1936;47.074;15.336;2022-11-20T05:15:55;1.10;99.90
3842;DHT22;1936;47.074;15.336;2022-11-20T05:17:58;1.10;99.90
3842;DHT22;1936;47.074;15.336;2022-11-20T05:20:02;1.10;99.90
3842;DHT22;1936;47.074;15.336;2022-11-20T05:22:05;1.10;99.90
3842;DHT22;1936;47.074;15.336;2022-11-20T05:24:08;1.10;99.90
3842;DHT22;1936;47.074;15.336;2022-11-20T05:26:16;1.00;99.90
3842;DHT22;1936;47.074;15.336;2022-11-20T05:28:20;1.10;99.90
3842;DHT22;1936;47.074;15.336;2022-11-20T05:30:23;1.00;99.90
3842;DHT22;1936;47.074;15.336;2022-11-20T05:32:26;1.00;99.90
3842;DHT22;1936;47.074;15.336;2022-11-20T05:34:29;1.00;99.90
3842;DHT22;1936;47.074;15.336;2022-11-20T05:36:33;1.00;99.90
3842;DHT22;1936;47.074;15.336;2022-11-20T05:38:36;1.00;99.90
3842;DHT22;1936;47.074;15.336;2022-11-20T05:40:40;1.00;99.90
3842;DHT22;1936;47.074;15.336;2022-11-20T05:42:44;1.00;99.90
3842;DHT22;1936;47.074;15.336;2022-11-20T05:44:48;1.00;99.90
3842;DHT22;1936;47.074;15.336;2022-11-20T05:46:51;1.00;99.90
3842;DHT22;1936;47.074;15.336;2022-11-20T05:48:54;1.00;99.90
3842;DHT22;1936;47.074;15.336;2022-11-20T05:50:58;1.00;99.90
3842;DHT22;1936;47.074;15.336;2022-11-20T05:53:02;1.10;99.90
3842;DHT22;1936;47.074;15.336;2022-11-20T05:55:05;1.00;99.90
3842;DHT22;1936;47.074;15.336;2022-11-20T05:57:09;1.10;99.90
3842;DHT22;1936;47.074;15.336;2022-11-20T05:59:14;1.00;99.90
3842;DHT22;1936;47.074;15.336;2022-11-20T06:01:19;1.00;99.90
3842;DHT22;1936;47.074;15.336;2022-11-20T06:03:23;1.10;99.90
3842;DHT22;1936;47.074;15.336;2022-11-20T06:05:26;1.10;99.90
3842;DHT22;1936;47.074;15.336;2022-11-20T06:07:29;1.00;99.90
3842;DHT22;1936;47.074;15.336;2022-11-20T06:09:33;1.00;99.90
3842;DHT22;1936;47.074;15.336;2022-11-20T06:11:37;1.00;99.90
3842;DHT22;1936;47.074;15.336;2022-11-20T06:13:41;1.00;99.90
3842;DHT22;1936;47.074;15.336;2022-11-20T06:15:50;1.00;99.90
3842;DHT22;1936;47.074;15.336;2022-11-20T06:17:53;1.00;99.90
3842;DHT22;1936;47.074;15.336;2022-11-20T06:19:57;1.00;99.90
3842;DHT22;1936;47.074;15.336;2022-11-20T06:22:00;1.10;99.90
3842;DHT22;1936;47.074;15.336;2022-11-20T06:24:04;1.10;99.90
3842;DHT22;1936;47.074;15.336;2022-11-20T06:26:09;1.10;99.90
3842;DHT22;1936;47.074;15.336;2022-11-20T06:28:14;1.10;99.90
3842;DHT22;1936;47.074;15.336;2022-11-20T06:30:18;1.20;99.90
3842;DHT22;1936;47.074;15.336;2022-11-20T06:32:23;1.20;99.90
3842;DHT22;1936;47.074;15.336;2022-11-20T06:34:26;1.20;99.90
3842;DHT22;1936;47.074;15.336;2022-11-20T06:36:29;1.30;99.90
3842;DHT22;1936;47.074;15.336;2022-11-20T06:38:33;1.30;99.90
3842;DHT22;1936;47.074;15.336;2022-11-20T06:40:38;1.30;99.90
3842;DHT22;1936;47.074;15.336;2022-11-20T06:42:42;1.30;99.90
3842;DHT22;1936;47.074;15.336;2022-11-20T06:44:45;1.30;99.90
3842;DHT22;1936;47.074;15.336;2022-11-20T06:46:48;1.30;99.90
3842;DHT22;1936;47.074;15.336;2022-11-20T06:48:53;1.40;99.90
3842;DHT22;1936;47.074;15.336;2022-11-20T06:50:57;1.40;99.90
3842;DHT22;1936;47.074;15.336;2022-11-20T06:53:03;1.40;99.90
3842;DHT22;1936;47.074;15.336;2022-11-20T06:55:07;1.40;99.90
3842;DHT22;1936;47.074;15.336;2022-11-20T06:57:11;1.40;99.90
3842;DHT22;1936;47.074;15.336;2022-11-20T06:59:14;1.40;99.90
3842;DHT22;1936;47.074;15.336;2022-11-20T07:01:17;1.40;99.90
3842;DHT22;1936;47.074;15.336;2022-11-20T07:03:20;1.40;99.90
3842;DHT22;1936;47.074;15.336;2022-11-20T07:05:25;1.50;99.90
3842;DHT22;1936;47.074;15.336;2022-11-20T07:07:28;1.40;99.90
3842;DHT22;1936;47.074;15.336;2022-11-20T07:09:32;1.60;99.90
3842;DHT22;1936;47.074;15.336;2022-11-20T07:11:35;1.50;99.90
3842;DHT22;1936;47.074;15.336;2022-11-20T07:13:38;1.60;99.90
3842;DHT22;1936;47.074;15.336;2022-11-20T07:15:42;1.60;99.90
3842;DHT22;1936;47.074;15.336;2022-11-20T07:17:45;1.70;99.90
3842;DHT22;1936;47.074;15.336;2022-11-20T07:19:49;1.80;99.90
3842;DHT22;1936;47.074;15.336;2022-11-20T07:21:53;1.80;99.90
3842;DHT22;1936;47.074;15.336;2022-11-20T07:23:57;1.80;99.90
3842;DHT22;1936;47.074;15.336;2022-11-20T07:26:03;1.80;99.90
3842;DHT22;1936;47.074;15.336;2022-11-20T07:28:06;1.90;99.90
3842;DHT22;1936;47.074;15.336;2022-11-20T07:30:11;1.90;99.90
3842;DHT22;1936;47.074;15.336;2022-11-20T07:32:14;2.00;99.90
3842;DHT22;1936;47.074;15.336;2022-11-20T07:34:17;2.00;99.90
3842;DHT22;1936;47.074;15.336;2022-11-20T07:36:21;2.00;99.90
3842;DHT22;1936;47.074;15.336;2022-11-20T07:38:26;2.00;99.90
3842;DHT22;1936;47.074;15.336;2022-11-20T07:40:29;2.10;99.90
3842;DHT22;1936;47.074;15.336;2022-11-20T07:42:33;2.20;99.90
3842;DHT22;1936;47.074;15.336;2022-11-20T07:44:36;2.30;99.90
3842;DHT22;1936;47.074;15.336;2022-11-20T07:46:39;2.40;99.90
3842;DHT22;1936;47.074;15.336;2022-11-20T07:48:43;2.40;99.90
3842;DHT22;1936;47.074;15.336;2022-11-20T07:50:46;2.40;99.90
3842;DHT22;1936;47.074;15.336;2022-11-20T07:52:49;2.40;99.90
3842;DHT22;1936;47.074;15.336;2022-11-20T07:54:54;2.40;99.90
3842;DHT22;1936;47.074;15.336;2022-11-20T07:56:57;2.40;99.90
3842;DHT22;1936;47.074;15.336;2022-11-20T07:59:00;2.50;99.90
3842;DHT22;1936;47.074;15.336;2022-11-20T08:01:04;2.40;99.90
3842;DHT22;1936;47.074;15.336;2022-11-20T08:03:08;2.50;99.90
3842;DHT22;1936;47.074;15.336;2022-11-20T08:05:11;2.50;99.90
3842;DHT22;1936;47.074;15.336;2022-11-20T08:07:14;2.50;99.90
3842;DHT22;1936;47.074;15.336;2022-11-20T08:09:18;2.50;99.90
3842;DHT22;1936;47.074;15.336;2022-11-20T08:11:23;2.40;99.90
3842;DHT22;1936;47.074;15.336;2022-11-20T08:13:43;2.20;99.90
3842;DHT22;1936;47.074;15.336;2022-11-20T08:16:04;2.30;99.90
3842;DHT22;1936;47.074;15.336;2022-11-20T08:18:09;2.40;99.90
3842;DHT22;1936;47.074;15.336;2022-11-20T08:20:33;2.30;99.90
3842;DHT22;1936;47.074;15.336;2022-11-20T08:22:36;2.30;99.90
3842;DHT22;1936;47.074;15.336;2022-11-20T08:24:40;2.40;99.90
3842;DHT22;1936;47.074;15.336;2022-11-20T08:26:45;2.40;99.90
3842;DHT22;1936;47.074;15.336;2022-11-20T08:28:48;2.30;99.90
3842;DHT22;1936;47.074;15.336;2022-11-20T08:30:56;2.40;99.90
3842;DHT22;1936;47.074;15.336;2022-11-20T08:33:02;2.40;99.90
3842;DHT22;1936;47.074;15.336;2022-11-20T08:35:06;2.40;99.90
3842;DHT22;1936;47.074;15.336;2022-11-20T08:37:09;2.40;99.90
3842;DHT22;1936;47.074;15.336;2022-11-20T08:39:13;2.50;99.90
3842;DHT22;1936;47.074;15.336;2022-11-20T08:41:16;2.60;99.90
3842;DHT22;1936;47.074;15.336;2022-11-20T08:43:30;2.60;99.90
3842;DHT22;1936;47.074;15.336;2022-11-20T08:45:34;2.60;99.90
3842;DHT22;1936;47.074;15.336;2022-11-20T08:47:37;2.70;99.90
3842;DHT22;1936;47.074;15.336;2022-11-20T08:49:40;2.70;99.90
3842;DHT22;1936;47.074;15.336;2022-11-20T08:51:44;2.70;99.90
3842;DHT22;1936;47.074;15.336;2022-11-20T08:53:48;2.70;99.90
3842;DHT22;1936;47.074;15.336;2022-11-20T08:55:52;2.80;99.90
3842;DHT22;1936;47.074;15.336;2022-11-20T08:57:56;2.90;99.90
3842;DHT22;1936;47.074;15.336;2022-11-20T09:00:01;2.90;99.90
3842;DHT22;1936;47.074;15.336;2022-11-20T09:02:09;2.90;99.90
3842;DHT22;1936;47.074;15.336;2022-11-20T09:04:13;2.90;99.90
3842;DHT22;1936;47.074;15.336;2022-11-20T09:06:17;2.80;99.90
3842;DHT22;1936;47.074;15.336;2022-11-20T09:08:21;2.70;99.90
3842;DHT22;1936;47.074;15.336;2022-11-20T09:10:25;2.80;99.90
3842;DHT22;1936;47.074;15.336;2022-11-20T09:12:28;2.90;99.90
3842;DHT22;1936;47.074;15.336;2022-11-20T09:14:31;2.90;99.90
3842;DHT22;1936;47.074;15.336;2022-11-20T09:16:37;3.00;99.90
3842;DHT22;1936;47.074;15.336;2022-11-20T09:18:40;3.00;99.90
3842;DHT22;1936;47.074;15.336;2022-11-20T09:20:43;3.00;99.90
3842;DHT22;1936;47.074;15.336;2022-11-20T09:22:47;3.00;99.90
3842;DHT22;1936;47.074;15.336;2022-11-20T09:24:50;3.10;99.90
3842;DHT22;1936;47.074;15.336;2022-11-20T09:26:54;3.20;99.90
3842;DHT22;1936;47.074;15.336;2022-11-20T09:28:57;3.10;99.90
3842;DHT22;1936;47.074;15.336;2022-11-20T09:31:00;3.10;99.90
3842;DHT22;1936;47.074;15.336;2022-11-20T09:33:08;3.00;99.90
3842;DHT22;1936;47.074;15.336;2022-11-20T09:35:11;3.10;99.90
3842;DHT22;1936;47.074;15.336;2022-11-20T09:37:16;3.10;99.90
3842;DHT22;1936;47.074;15.336;2022-11-20T09:39:19;3.30;99.90
3842;DHT22;1936;47.074;15.336;2022-11-20T09:41:49;3.40;99.90
3842;DHT22;1936;47.074;15.336;2022-11-20T09:44:01;3.60;99.90
3842;DHT22;1936;47.074;15.336;2022-11-20T09:46:13;3.80;99.90
3842;DHT22;1936;47.074;15.336;2022-11-20T09:48:32;4.00;99.90
3842;DHT22;1936;47.074;15.336;2022-11-20T09:50:43;4.20;99.90
3842;DHT22;1936;47.074;15.336;2022-11-20T09:52:59;4.50;99.90
3842;DHT22;1936;47.074;15.336;2022-11-20T09:55:09;4.70;99.90
3842;DHT22;1936;47.074;15.336;2022-11-20T09:57:18;4.70;99.90
3842;DHT22;1936;47.074;15.336;2022-11-20T09:59:32;5.00;99.90
3842;DHT22;1936;47.074;15.336;2022-11-20T10:01:38;5.60;99.90
3842;DHT22;1936;47.074;15.336;2022-11-20T10:03:52;6.30;99.90
3842;DHT22;1936;47.074;15.336;2022-11-20T10:12:26;6.50;99.90
3842;DHT22;1936;47.074;15.336;2022-11-20T10:14:40;6.30;99.90
3842;DHT22;1936;47.074;15.336;2022-11-20T10:16:56;6.60;99.90
3842;DHT22;1936;47.074;15.336;2022-11-20T10:19:14;6.60;99.90
3842;DHT22;1936;47.074;15.336;2022-11-20T10:21:30;6.60;99.90
3842;DHT22;1936;47.074;15.336;2022-11-20T10:23:57;6.70;99.90
3842;DHT22;1936;47.074;15.336;2022-11-20T10:26:16;6.40;99.90
3842;DHT22;1936;47.074;15.336;2022-11-20T10:28:29;6.30;99.90
3842;DHT22;1936;47.074;15.336;2022-11-20T10:30:36;6.40;99.90
3842;DHT22;1936;47.074;15.336;2022-11-20T10:32:43;6.40;99.90
3842;DHT22;1936;47.074;15.336;2022-11-20T10:34:51;6.50;99.90
3842;DHT22;1936;47.074;15.336;2022-11-20T10:36:59;6.10;99.90
3842;DHT22;1936;47.074;15.336;2022-11-20T10:39:11;5.90;99.90
3842;DHT22;1936;47.074;15.336;2022-11-20T11:08:59;8.20;99.90
3842;DHT22;1936;47.074;15.336;2022-11-20T11:11:15;8.40;99.90
3842;DHT22;1936;47.074;15.336;2022-11-20T11:13:22;8.50;99.90
3842;DHT22;1936;47.074;15.336;2022-11-20T11:21:38;9.50;99.90
3842;DHT22;1936;47.074;15.336;2022-11-20T11:24:01;9.70;99.90
3842;DHT22;1936;47.074;15.336;2022-11-20T11:26:25;9.50;99.90
3842;DHT22;1936;47.074;15.336;2022-11-20T11:28:29;9.00;99.90
3842;DHT22;1936;47.074;15.336;2022-11-20T11:30:41;9.80;99.90
3842;DHT22;1936;47.074;15.336;2022-11-20T11:32:45;10.90;99.90
3842;DHT22;1936;47.074;15.336;2022-11-20T11:34:59;11.50;99.90
3842;DHT22;1936;47.074;15.336;2022-11-20T11:37:02;11.80;99.90
3842;DHT22;1936;47.074;15.336;2022-11-20T11:39:17;11.70;99.90
3842;DHT22;1936;47.074;15.336;2022-11-20T11:41:28;11.10;99.90
3842;DHT22;1936;47.074;15.336;2022-11-20T11:43:35;11.70;99.90
3842;DHT22;1936;47.074;15.336;2022-11-20T11:45:56;11.50;99.90
3842;DHT22;1936;47.074;15.336;2022-11-20T11:48:03;11.00;99.90
3842;DHT22;1936;47.074;15.336;2022-11-20T11:50:16;10.60;99.90
3842;DHT22;1936;47.074;15.336;2022-11-20T11:52:21;10.00;99.90
3842;DHT22;1936;47.074;15.336;2022-11-20T11:54:32;10.00;99.90
3842;DHT22;1936;47.074;15.336;2022-11-20T11:56:37;10.40;99.90
3842;DHT22;1936;47.074;15.336;2022-11-20T11:58:44;10.10;99.90
3842;DHT22;1936;47.074;15.336;2022-11-20T12:00:56;10.20;99.90
3842;DHT22;1936;47.074;15.336;2022-11-20T12:03:05;10.50;99.90
3842;DHT22;1936;47.074;15.336;2022-11-20T12:05:18;10.30;99.90
3842;DHT22;1936;47.074;15.336;2022-11-20T12:07:32;10.60;99.90
3842;DHT22;1936;47.074;15.336;2022-11-20T12:12:02;11.00;99.90
3842;DHT22;1936;47.074;15.336;2022-11-20T12:22:41;11.50;99.90
3842;DHT22;1936;47.074;15.336;2022-11-20T12:31:26;13.60;99.90
3842;DHT22;1936;47.074;15.336;2022-11-20T12:33:53;14.10;99.90
3842;DHT22;1936;47.074;15.336;2022-11-20T12:36:07;14.60;99.90
3842;DHT22;1936;47.074;15.336;2022-11-20T12:38:34;14.70;99.90
3842;DHT22;1936;47.074;15.336;2022-11-20T12:40:45;15.20;99.90
3842;DHT22;1936;47.074;15.336;2022-11-20T12:47:50;15.30;99.90
3842;DHT22;1936;47.074;15.336;2022-11-20T12:50:02;14.90;99.90
3842;DHT22;1936;47.074;15.336;2022-11-20T13:01:03;16.40;99.90
3842;DHT22;1936;47.074;15.336;2022-11-20T13:07:52;17.00;99.90
3842;DHT22;1936;47.074;15.336;2022-11-20T13:09:56;17.10;98.90
3842;DHT22;1936;47.074;15.336;2022-11-20T13:12:06;16.90;98.50
3842;DHT22;1936;47.074;15.336;2022-11-20T13:14:26;17.10;99.00
3842;DHT22;1936;47.074;15.336;2022-11-20T13:20:47;16.80;98.80
3842;DHT22;1936;47.074;15.336;2022-11-20T13:29:10;16.00;99.90
3842;DHT22;1936;47.074;15.336;2022-11-20T13:31:31;16.00;99.20
3842;DHT22;1936;47.074;15.336;2022-11-20T13:33:36;15.90;98.90
3842;DHT22;1936;47.074;15.336;2022-11-20T13:35:42;16.00;98.90
3842;DHT22;1936;47.074;15.336;2022-11-20T13:37:45;15.90;99.10
3842;DHT22;1936;47.074;15.336;2022-11-20T13:39:48;15.80;98.60
3842;DHT22;1936;47.074;15.336;2022-11-20T13:41:55;15.30;99.10
3842;DHT22;1936;47.074;15.336;2022-11-20T13:44:04;15.30;99.20
3842;DHT22;1936;47.074;15.336;2022-11-20T13:46:11;14.70;99.90
3842;DHT22;1936;47.074;15.336;2022-11-20T13:48:21;14.00;99.90
3842;DHT22;1936;47.074;15.336;2022-11-20T13:50:40;13.90;99.90
3842;DHT22;1936;47.074;15.336;2022-11-20T13:52:53;13.50;99.90
3842;DHT22;1936;47.074;15.336;2022-11-20T13:55:12;13.30;99.90
3842;DHT22;1936;47.074;15.336;2022-11-20T14:01:46;12.00;99.90
3842;DHT22;1936;47.074;15.336;2022-11-20T14:06:14;10.20;99.90
3842;DHT22;1936;47.074;15.336;2022-11-20T14:08:27;10.60;99.90
3842;DHT22;1936;47.074;15.336;2022-11-20T14:10:34;10.50;99.90
3842;DHT22;1936;47.074;15.336;2022-11-20T14:12:41;9.80;99.90
3842;DHT22;1936;47.074;15.336;2022-11-20T14:17:04;8.20;99.90
3842;DHT22;1936;47.074;15.336;2022-11-20T14:19:28;8.00;99.90
3842;DHT22;1936;47.074;15.336;2022-11-20T14:21:32;7.60;99.90
3842;DHT22;1936;47.074;15.336;2022-11-20T14:23:35;7.30;99.90
3842;DHT22;1936;47.074;15.336;2022-11-20T14:25:42;7.10;99.90
3842;DHT22;1936;47.074;15.336;2022-11-20T14:27:50;6.90;99.90
3842;DHT22;1936;47.074;15.336;2022-11-20T14:29:54;6.60;99.90
3842;DHT22;1936;47.074;15.336;2022-11-20T14:31:59;6.40;99.90
3842;DHT22;1936;47.074;15.336;2022-11-20T14:34:04;6.30;99.90
3842;DHT22;1936;47.074;15.336;2022-11-20T14:36:16;6.00;99.90
3842;DHT22;1936;47.074;15.336;2022-11-20T14:38:23;5.90;99.90
3842;DHT22;1936;47.074;15.336;2022-11-20T14:40:29;5.70;99.90
3842;DHT22;1936;47.074;15.336;2022-11-20T14:42:33;5.60;99.90
3842;DHT22;1936;47.074;15.336;2022-11-20T14:44:39;5.50;99.90
3842;DHT22;1936;47.074;15.336;2022-11-20T14:46:43;5.40;99.90
3842;DHT22;1936;47.074;15.336;2022-11-20T14:48:49;5.20;99.90
3842;DHT22;1936;47.074;15.336;2022-11-20T14:50:54;5.10;99.90
3842;DHT22;1936;47.074;15.336;2022-11-20T14:52:58;5.10;99.90
3842;DHT22;1936;47.074;15.336;2022-11-20T14:55:01;4.90;99.90
3842;DHT22;1936;47.074;15.336;2022-11-20T14:57:05;4.80;99.90
3842;DHT22;1936;47.074;15.336;2022-11-20T14:59:09;4.70;99.90
3842;DHT22;1936;47.074;15.336;2022-11-20T15:01:13;4.50;99.90
3842;DHT22;1936;47.074;15.336;2022-11-20T15:03:16;4.40;99.90
3842;DHT22;1936;47.074;15.336;2022-11-20T15:05:22;4.30;99.90
3842;DHT22;1936;47.074;15.336;2022-11-20T15:07:27;4.20;99.90
3842;DHT22;1936;47.074;15.336;2022-11-20T15:09:31;4.10;99.90
3842;DHT22;1936;47.074;15.336;2022-11-20T15:11:35;4.00;99.90
3842;DHT22;1936;47.074;15.336;2022-11-20T15:13:39;3.90;99.90
3842;DHT22;1936;47.074;15.336;2022-11-20T15:15:45;3.80;99.90
3842;DHT22;1936;47.074;15.336;2022-11-20T15:17:49;3.70;99.90
3842;DHT22;1936;47.074;15.336;2022-11-20T15:19:54;3.60;99.90